sensor_id;sensor_type;location;lat;lon;timestamp;P1;durP1;ratioP1;P2;durP2;ratioP2
34876;SDS011;21086;44.780;17.194;2022-11-15T00:01:08;14.15;;;9.27;;
34876;SDS011;21086;44.780;17.194;2022-11-15T00:03:36;13.68;;;9.30;;
34876;SDS011;21086;44.780;17.194;2022-11-15T00:06:03;12.45;;;9.25;;
34876;SDS011;21086;44.780;17.194;2022-11-15T00:08:31;15.80;;;10.43;;
34876;SDS011;21086;44.780;17.194;2022-11-15T00:10:59;15.45;;;9.50;;
34876;SDS011;21086;44.780;17.194;2022-11-15T00:13:28;15.50;;;10.50;;
34876;SDS011;21086;44.780;17.194;2022-11-15T00:15:57;15.90;;;11.20;;
34876;SDS011;21086;44.780;17.194;2022-11-15T00:18:25;15.80;;;10.52;;
34876;SDS011;21086;44.780;17.194;2022-11-15T00:20:53;16.50;;;10.77;;
34876;SDS011;21086;44.780;17.194;2022-11-15T00:23:22;17.38;;;11.02;;
34876;SDS011;21086;44.780;17.194;2022-11-15T00:25:56;15.93;;;10.50;;
34876;SDS011;21086;44.780;17.194;2022-11-15T00:28:24;15.98;;;10.48;;
34876;SDS011;21086;44.780;17.194;2022-11-15T00:30:52;14.43;;;10.15;;
34876;SDS011;21086;44.780;17.194;2022-11-15T00:33:19;14.10;;;9.43;;
34876;SDS011;21086;44.780;17.194;2022-11-15T00:35:46;14.25;;;9.80;;
34876;SDS011;21086;44.780;17.194;2022-11-15T00:38:13;17.60;;;11.40;;
34876;SDS011;21086;44.780;17.194;2022-11-15T00:40:40;15.77;;;10.57;;
34876;SDS011;21086;44.780;17.194;2022-11-15T00:43:07;17.17;;;10.85;;
34876;SDS011;21086;44.780;17.194;2022-11-15T00:45:35;13.93;;;9.65;;
34876;SDS011;21086;44.780;17.194;2022-11-15T00:48:02;15.85;;;10.95;;
34876;SDS011;21086;44.780;17.194;2022-11-15T00:50:29;13.32;;;9.65;;
34876;SDS011;21086;44.780;17.194;2022-11-15T00:52:56;16.15;;;10.63;;
34876;SDS011;21086;44.780;17.194;2022-11-15T00:55:23;18.27;;;10.75;;
34876;SDS011;21086;44.780;17.194;2022-11-15T00:57:52;15.80;;;9.93;;
34876;SDS011;21086;44.780;17.194;2022-11-15T01:00:19;15.52;;;9.77;;
34876;SDS011;21086;44.780;17.194;2022-11-15T01:02:47;16.15;;;9.88;;
34876;SDS011;21086;44.780;17.194;2022-11-15T01:05:15;14.52;;;10.27;;
34876;SDS011;21086;44.780;17.194;2022-11-15T01:07:43;14.30;;;9.68;;
34876;SDS011;21086;44.780;17.194;2022-11-15T01:10:10;13.43;;;9.52;;
34876;SDS011;21086;44.780;17.194;2022-11-15T01:12:38;13.50;;;9.02;;
34876;SDS011;21086;44.780;17.194;2022-11-15T01:15:06;12.60;;;8.77;;
34876;SDS011;21086;44.780;17.194;2022-11-15T01:17:34;15.35;;;10.15;;
34876;SDS011;21086;44.780;17.194;2022-11-15T01:20:01;15.18;;;9.40;;
34876;SDS011;21086;44.780;17.194;2022-11-15T01:22:32;18.02;;;10.75;;
34876;SDS011;21086;44.780;17.194;2022-11-15T01:24:59;13.48;;;10.18;;
34876;SDS011;21086;44.780;17.194;2022-11-15T01:27:27;18.08;;;11.82;;
34876;SDS011;21086;44.780;17.194;2022-11-15T01:29:55;18.40;;;12.05;;
34876;SDS011;21086;44.780;17.194;2022-11-15T01:32:23;15.65;;;10.25;;
34876;SDS011;21086;44.780;17.194;2022-11-15T01:34:50;18.05;;;12.23;;
34876;SDS011;21086;44.780;17.194;2022-11-15T01:37:18;16.42;;;10.50;;
34876;SDS011;21086;44.780;17.194;2022-11-15T01:39:46;18.95;;;12.55;;
34876;SDS011;21086;44.780;17.194;2022-11-15T01:42:13;20.33;;;12.32;;
34876;SDS011;21086;44.780;17.194;2022-11-15T01:44:48;19.85;;;13.07;;
34876;SDS011;21086;44.780;17.194;2022-11-15T01:47:23;17.98;;;11.68;;
34876;SDS011;21086;44.780;17.194;2022-11-15T01:52:25;18.83;;;11.30;;
34876;SDS011;21086;44.780;17.194;2022-11-15T01:57:35;17.95;;;12.45;;
34876;SDS011;21086;44.780;17.194;2022-11-15T02:00:03;16.55;;;10.95;;
34876;SDS011;21086;44.780;17.194;2022-11-15T02:02:32;17.88;;;11.85;;
34876;SDS011;21086;44.780;17.194;2022-11-15T02:05:00;15.10;;;10.25;;
34876;SDS011;21086;44.780;17.194;2022-11-15T02:07:27;14.63;;;9.38;;
34876;SDS011;21086;44.780;17.194;2022-11-15T02:09:57;16.52;;;10.52;;
34876;SDS011;21086;44.780;17.194;2022-11-15T02:12:27;16.75;;;10.90;;
34876;SDS011;21086;44.780;17.194;2022-11-15T02:14:57;14.95;;;10.50;;
34876;SDS011;21086;44.780;17.194;2022-11-15T02:22:35;17.20;;;10.55;;
34876;SDS011;21086;44.780;17.194;2022-11-15T02:36:05;15.85;;;10.00;;
34876;SDS011;21086;44.780;17.194;2022-11-15T02:38:40;13.80;;;10.45;;
34876;SDS011;21086;44.780;17.194;2022-11-15T02:41:20;15.27;;;10.38;;
34876;SDS011;21086;44.780;17.194;2022-11-15T02:43:59;15.75;;;9.38;;
34876;SDS011;21086;44.780;17.194;2022-11-15T02:49:31;14.07;;;10.00;;
34876;SDS011;21086;44.780;17.194;2022-11-15T02:52:00;15.02;;;9.75;;
34876;SDS011;21086;44.780;17.194;2022-11-15T02:54:31;18.25;;;11.05;;
34876;SDS011;21086;44.780;17.194;2022-11-15T02:57:02;17.65;;;10.30;;
34876;SDS011;21086;44.780;17.194;2022-11-15T03:08:34;15.95;;;9.00;;
34876;SDS011;21086;44.780;17.194;2022-11-15T03:11:07;12.98;;;8.75;;
34876;SDS011;21086;44.780;17.194;2022-11-15T03:13:43;10.80;;;7.65;;
34876;SDS011;21086;44.780;17.194;2022-11-15T03:22:11;11.55;;;8.05;;
34876;SDS011;21086;44.780;17.194;2022-11-15T03:24:42;10.85;;;7.82;;
34876;SDS011;21086;44.780;17.194;2022-11-15T03:27:12;10.15;;;7.18;;
34876;SDS011;21086;44.780;17.194;2022-11-15T03:29:44;10.75;;;8.05;;
34876;SDS011;21086;44.780;17.194;2022-11-15T03:32:18;11.70;;;7.65;;
34876;SDS011;21086;44.780;17.194;2022-11-15T03:35:05;12.27;;;7.75;;
34876;SDS011;21086;44.780;17.194;2022-11-15T03:40:09;11.43;;;7.68;;
34876;SDS011;21086;44.780;17.194;2022-11-15T03:42:39;13.90;;;8.68;;
34876;SDS011;21086;44.780;17.194;2022-11-15T03:45:14;11.32;;;7.45;;
34876;SDS011;21086;44.780;17.194;2022-11-15T03:47:49;10.55;;;7.20;;
34876;SDS011;21086;44.780;17.194;2022-11-15T03:50:20;11.38;;;7.53;;
34876;SDS011;21086;44.780;17.194;2022-11-15T03:52:49;11.18;;;7.68;;
34876;SDS011;21086;44.780;17.194;2022-11-15T03:55:18;13.80;;;8.18;;
34876;SDS011;21086;44.780;17.194;2022-11-15T03:57:47;14.10;;;8.40;;
34876;SDS011;21086;44.780;17.194;2022-11-15T04:00:17;13.40;;;8.68;;
34876;SDS011;21086;44.780;17.194;2022-11-15T04:02:43;11.55;;;8.23;;
34876;SDS011;21086;44.780;17.194;2022-11-15T04:05:10;13.98;;;7.72;;
34876;SDS011;21086;44.780;17.194;2022-11-15T04:07:37;13.93;;;8.73;;
34876;SDS011;21086;44.780;17.194;2022-11-15T04:10:05;15.15;;;8.95;;
34876;SDS011;21086;44.780;17.194;2022-11-15T04:12:33;13.60;;;9.00;;
34876;SDS011;21086;44.780;17.194;2022-11-15T04:15:05;12.75;;;7.97;;
34876;SDS011;21086;44.780;17.194;2022-11-15T04:20:15;16.55;;;10.15;;
34876;SDS011;21086;44.780;17.194;2022-11-15T04:23:06;14.27;;;9.18;;
34876;SDS011;21086;44.780;17.194;2022-11-15T04:25:57;14.90;;;10.13;;
34876;SDS011;21086;44.780;17.194;2022-11-15T04:28:27;17.17;;;9.70;;
34876;SDS011;21086;44.780;17.194;2022-11-15T04:30:53;16.48;;;9.60;;
34876;SDS011;21086;44.780;17.194;2022-11-15T04:33:21;15.65;;;9.38;;
34876;SDS011;21086;44.780;17.194;2022-11-15T04:35:49;14.05;;;9.18;;
34876;SDS011;21086;44.780;17.194;2022-11-15T04:38:35;14.68;;;9.48;;
34876;SDS011;21086;44.780;17.194;2022-11-15T04:41:02;15.48;;;9.43;;
34876;SDS011;21086;44.780;17.194;2022-11-15T04:43:29;11.32;;;7.78;;
34876;SDS011;21086;44.780;17.194;2022-11-15T04:45:57;14.98;;;9.38;;
34876;SDS011;21086;44.780;17.194;2022-11-15T04:48:25;14.18;;;9.10;;
34876;SDS011;21086;44.780;17.194;2022-11-15T04:50:52;14.48;;;9.88;;
34876;SDS011;21086;44.780;17.194;2022-11-15T04:53:19;14.57;;;9.38;;
34876;SDS011;21086;44.780;17.194;2022-11-15T04:55:46;12.43;;;7.97;;
34876;SDS011;21086;44.780;17.194;2022-11-15T04:58:13;12.25;;;8.35;;
34876;SDS011;21086;44.780;17.194;2022-11-15T05:00:40;30.05;;;18.27;;
34876;SDS011;21086;44.780;17.194;2022-11-15T05:03:08;44.45;;;24.35;;
34876;SDS011;21086;44.780;17.194;2022-11-15T05:05:54;16.00;;;10.38;;
34876;SDS011;21086;44.780;17.194;2022-11-15T05:08:21;13.65;;;9.18;;
34876;SDS011;21086;44.780;17.194;2022-11-15T05:10:48;13.27;;;8.90;;
34876;SDS011;21086;44.780;17.194;2022-11-15T05:13:15;12.90;;;8.48;;
34876;SDS011;21086;44.780;17.194;2022-11-15T05:15:43;11.00;;;7.53;;
34876;SDS011;21086;44.780;17.194;2022-11-15T05:18:10;16.08;;;11.63;;
34876;SDS011;21086;44.780;17.194;2022-11-15T05:20:38;12.75;;;8.68;;
34876;SDS011;21086;44.780;17.194;2022-11-15T05:23:05;12.95;;;8.80;;
34876;SDS011;21086;44.780;17.194;2022-11-15T05:25:32;13.65;;;9.13;;
34876;SDS011;21086;44.780;17.194;2022-11-15T05:27:59;13.10;;;9.52;;
34876;SDS011;21086;44.780;17.194;2022-11-15T05:30:29;13.38;;;9.15;;
34876;SDS011;21086;44.780;17.194;2022-11-15T05:32:56;13.30;;;9.23;;
34876;SDS011;21086;44.780;17.194;2022-11-15T05:35:30;14.18;;;9.43;;
34876;SDS011;21086;44.780;17.194;2022-11-15T05:38:03;13.23;;;9.38;;
34876;SDS011;21086;44.780;17.194;2022-11-15T05:40:30;13.98;;;9.68;;
34876;SDS011;21086;44.780;17.194;2022-11-15T05:42:58;14.73;;;9.43;;
34876;SDS011;21086;44.780;17.194;2022-11-15T05:45:28;16.05;;;9.73;;
34876;SDS011;21086;44.780;17.194;2022-11-15T05:47:56;12.48;;;9.30;;
34876;SDS011;21086;44.780;17.194;2022-11-15T05:50:26;13.68;;;9.27;;
34876;SDS011;21086;44.780;17.194;2022-11-15T05:52:53;15.18;;;9.75;;
34876;SDS011;21086;44.780;17.194;2022-11-15T05:55:25;13.68;;;9.25;;
34876;SDS011;21086;44.780;17.194;2022-11-15T05:57:52;14.10;;;9.85;;
34876;SDS011;21086;44.780;17.194;2022-11-15T06:00:19;14.15;;;10.18;;
34876;SDS011;21086;44.780;17.194;2022-11-15T06:02:46;17.80;;;9.65;;
34876;SDS011;21086;44.780;17.194;2022-11-15T06:05:12;15.93;;;9.85;;
34876;SDS011;21086;44.780;17.194;2022-11-15T06:07:40;13.65;;;9.40;;
34876;SDS011;21086;44.780;17.194;2022-11-15T06:10:07;15.85;;;9.40;;
34876;SDS011;21086;44.780;17.194;2022-11-15T06:12:34;17.58;;;10.30;;
34876;SDS011;21086;44.780;17.194;2022-11-15T06:15:01;12.90;;;8.50;;
34876;SDS011;21086;44.780;17.194;2022-11-15T06:17:28;14.68;;;9.65;;
34876;SDS011;21086;44.780;17.194;2022-11-15T06:19:55;16.90;;;9.73;;
34876;SDS011;21086;44.780;17.194;2022-11-15T06:22:23;15.07;;;10.35;;
34876;SDS011;21086;44.780;17.194;2022-11-15T06:24:49;14.40;;;9.55;;
34876;SDS011;21086;44.780;17.194;2022-11-15T06:27:16;17.13;;;10.52;;
34876;SDS011;21086;44.780;17.194;2022-11-15T06:29:43;14.75;;;9.88;;
34876;SDS011;21086;44.780;17.194;2022-11-15T06:32:10;15.90;;;9.95;;
34876;SDS011;21086;44.780;17.194;2022-11-15T06:34:37;12.73;;;9.60;;
34876;SDS011;21086;44.780;17.194;2022-11-15T06:37:04;14.88;;;9.82;;
34876;SDS011;21086;44.780;17.194;2022-11-15T06:39:31;16.25;;;11.02;;
34876;SDS011;21086;44.780;17.194;2022-11-15T06:41:58;13.50;;;10.05;;
34876;SDS011;21086;44.780;17.194;2022-11-15T06:44:25;16.95;;;11.15;;
34876;SDS011;21086;44.780;17.194;2022-11-15T06:46:52;16.13;;;10.60;;
34876;SDS011;21086;44.780;17.194;2022-11-15T06:49:19;17.05;;;10.68;;
34876;SDS011;21086;44.780;17.194;2022-11-15T06:51:45;20.70;;;12.85;;
34876;SDS011;21086;44.780;17.194;2022-11-15T06:54:12;14.88;;;10.95;;
34876;SDS011;21086;44.780;17.194;2022-11-15T06:56:39;20.23;;;12.68;;
34876;SDS011;21086;44.780;17.194;2022-11-15T06:59:06;13.40;;;9.68;;
34876;SDS011;21086;44.780;17.194;2022-11-15T07:01:33;17.17;;;10.48;;
34876;SDS011;21086;44.780;17.194;2022-11-15T07:04:00;16.00;;;10.52;;
34876;SDS011;21086;44.780;17.194;2022-11-15T07:06:28;19.67;;;12.02;;
34876;SDS011;21086;44.780;17.194;2022-11-15T07:08:54;20.10;;;13.38;;
34876;SDS011;21086;44.780;17.194;2022-11-15T07:11:21;21.13;;;12.05;;
34876;SDS011;21086;44.780;17.194;2022-11-15T07:13:48;17.30;;;10.93;;
34876;SDS011;21086;44.780;17.194;2022-11-15T07:16:15;35.90;;;17.55;;
34876;SDS011;21086;44.780;17.194;2022-11-15T07:18:43;24.67;;;15.43;;
34876;SDS011;21086;44.780;17.194;2022-11-15T07:21:10;21.45;;;12.75;;
34876;SDS011;21086;44.780;17.194;2022-11-15T07:23:37;33.97;;;18.02;;
34876;SDS011;21086;44.780;17.194;2022-11-15T07:26:06;23.25;;;15.48;;
34876;SDS011;21086;44.780;17.194;2022-11-15T07:28:34;24.20;;;14.20;;
34876;SDS011;21086;44.780;17.194;2022-11-15T07:31:03;23.50;;;15.27;;
34876;SDS011;21086;44.780;17.194;2022-11-15T07:33:30;17.50;;;12.32;;
34876;SDS011;21086;44.780;17.194;2022-11-15T07:35:59;21.77;;;13.45;;
34876;SDS011;21086;44.780;17.194;2022-11-15T07:38:28;27.80;;;18.08;;
34876;SDS011;21086;44.780;17.194;2022-11-15T07:40:59;29.52;;;16.60;;
34876;SDS011;21086;44.780;17.194;2022-11-15T07:43:28;24.38;;;16.67;;
34876;SDS011;21086;44.780;17.194;2022-11-15T07:45:56;29.58;;;20.70;;
34876;SDS011;21086;44.780;17.194;2022-11-15T07:48:25;31.08;;;19.85;;
34876;SDS011;21086;44.780;17.194;2022-11-15T07:51:10;28.30;;;19.67;;
34876;SDS011;21086;44.780;17.194;2022-11-15T07:53:40;22.92;;;15.80;;
34876;SDS011;21086;44.780;17.194;2022-11-15T08:31:21;29.90;;;20.30;;
34876;SDS011;21086;44.780;17.194;2022-11-15T08:33:48;33.42;;;22.75;;
34876;SDS011;21086;44.780;17.194;2022-11-15T08:39:03;47.78;;;30.92;;
34876;SDS011;21086;44.780;17.194;2022-11-15T08:41:37;41.50;;;26.65;;
34876;SDS011;21086;44.780;17.194;2022-11-15T08:46:40;36.63;;;24.27;;
34876;SDS011;21086;44.780;17.194;2022-11-15T08:49:07;46.75;;;30.17;;
34876;SDS011;21086;44.780;17.194;2022-11-15T08:56:54;40.28;;;25.40;;
34876;SDS011;21086;44.780;17.194;2022-11-15T08:59:22;37.53;;;24.48;;
34876;SDS011;21086;44.780;17.194;2022-11-15T09:01:49;43.67;;;28.83;;
34876;SDS011;21086;44.780;17.194;2022-11-15T09:04:17;44.55;;;26.20;;
34876;SDS011;21086;44.780;17.194;2022-11-15T09:06:44;44.78;;;27.48;;
34876;SDS011;21086;44.780;17.194;2022-11-15T09:11:47;56.67;;;33.28;;
34876;SDS011;21086;44.780;17.194;2022-11-15T09:17:44;54.70;;;31.70;;
34876;SDS011;21086;44.780;17.194;2022-11-15T09:20:11;45.78;;;27.80;;
34876;SDS011;21086;44.780;17.194;2022-11-15T09:22:44;45.58;;;27.83;;
34876;SDS011;21086;44.780;17.194;2022-11-15T09:25:15;53.03;;;33.25;;
34876;SDS011;21086;44.780;17.194;2022-11-15T09:49:29;22.15;;;14.50;;
34876;SDS011;21086;44.780;17.194;2022-11-15T09:51:57;21.25;;;14.60;;
34876;SDS011;21086;44.780;17.194;2022-11-15T09:54:29;22.95;;;16.33;;
34876;SDS011;21086;44.780;17.194;2022-11-15T09:57:32;24.30;;;15.43;;
34876;SDS011;21086;44.780;17.194;2022-11-15T10:08:25;41.25;;;28.00;;
34876;SDS011;21086;44.780;17.194;2022-11-15T10:11:15;38.80;;;25.42;;
34876;SDS011;21086;44.780;17.194;2022-11-15T10:14:10;41.30;;;24.33;;
34876;SDS011;21086;44.780;17.194;2022-11-15T10:19:54;38.45;;;23.02;;
34876;SDS011;21086;44.780;17.194;2022-11-15T10:22:44;30.38;;;20.75;;
34876;SDS011;21086;44.780;17.194;2022-11-15T10:25:16;38.28;;;23.50;;
34876;SDS011;21086;44.780;17.194;2022-11-15T10:27:56;38.28;;;22.60;;
34876;SDS011;21086;44.780;17.194;2022-11-15T10:30:38;36.08;;;23.05;;
34876;SDS011;21086;44.780;17.194;2022-11-15T10:33:17;34.30;;;21.83;;
34876;SDS011;21086;44.780;17.194;2022-11-15T10:36:35;36.72;;;22.92;;
34876;SDS011;21086;44.780;17.194;2022-11-15T10:46:39;38.30;;;23.75;;
34876;SDS011;21086;44.780;17.194;2022-11-15T10:51:57;37.65;;;22.77;;
34876;SDS011;21086;44.780;17.194;2022-11-15T10:54:28;33.80;;;23.13;;
34876;SDS011;21086;44.780;17.194;2022-11-15T10:56:59;39.78;;;23.90;;
34876;SDS011;21086;44.780;17.194;2022-11-15T10:59:35;37.55;;;23.60;;
34876;SDS011;21086;44.780;17.194;2022-11-15T11:04:56;36.50;;;23.50;;
34876;SDS011;21086;44.780;17.194;2022-11-15T11:07:28;33.05;;;21.67;;
34876;SDS011;21086;44.780;17.194;2022-11-15T11:10:02;32.08;;;20.90;;
34876;SDS011;21086;44.780;17.194;2022-11-15T11:13:23;28.40;;;19.95;;
34876;SDS011;21086;44.780;17.194;2022-11-15T11:18:26;27.73;;;19.45;;
34876;SDS011;21086;44.780;17.194;2022-11-15T11:21:04;34.03;;;22.42;;
34876;SDS011;21086;44.780;17.194;2022-11-15T11:23:52;27.45;;;20.48;;
34876;SDS011;21086;44.780;17.194;2022-11-15T11:26:35;27.27;;;21.42;;
34876;SDS011;21086;44.780;17.194;2022-11-15T11:35:08;37.80;;;23.35;;
34876;SDS011;21086;44.780;17.194;2022-11-15T11:43:03;33.92;;;26.00;;
34876;SDS011;21086;44.780;17.194;2022-11-15T11:45:57;35.22;;;26.20;;
34876;SDS011;21086;44.780;17.194;2022-11-15T11:48:57;34.47;;;25.25;;
34876;SDS011;21086;44.780;17.194;2022-11-15T11:51:36;34.35;;;25.17;;
34876;SDS011;21086;44.780;17.194;2022-11-15T11:54:11;31.98;;;23.45;;
34876;SDS011;21086;44.780;17.194;2022-11-15T11:56:43;29.33;;;21.05;;
34876;SDS011;21086;44.780;17.194;2022-11-15T12:04:53;27.77;;;19.73;;
34876;SDS011;21086;44.780;17.194;2022-11-15T12:07:31;26.48;;;19.13;;
34876;SDS011;21086;44.780;17.194;2022-11-15T12:15:56;21.17;;;15.90;;
34876;SDS011;21086;44.780;17.194;2022-11-15T12:18:36;23.80;;;15.55;;
34876;SDS011;21086;44.780;17.194;2022-11-15T12:21:13;24.60;;;16.77;;
34876;SDS011;21086;44.780;17.194;2022-11-15T12:23:53;17.52;;;15.00;;
34876;SDS011;21086;44.780;17.194;2022-11-15T12:26:27;20.25;;;15.23;;
34876;SDS011;21086;44.780;17.194;2022-11-15T12:29:00;24.02;;;16.08;;
34876;SDS011;21086;44.780;17.194;2022-11-15T12:34:13;14.27;;;12.55;;
34876;SDS011;21086;44.780;17.194;2022-11-15T12:36:47;15.75;;;13.10;;
34876;SDS011;21086;44.780;17.194;2022-11-15T12:39:15;18.80;;;14.23;;
34876;SDS011;21086;44.780;17.194;2022-11-15T13:08:02;26.88;;;22.13;;
34876;SDS011;21086;44.780;17.194;2022-11-15T13:10:31;48.88;;;37.72;;
34876;SDS011;21086;44.780;17.194;2022-11-15T13:13:08;38.83;;;29.33;;
34876;SDS011;21086;44.780;17.194;2022-11-15T13:20:50;41.08;;;29.77;;
34876;SDS011;21086;44.780;17.194;2022-11-15T13:23:16;46.42;;;34.58;;
34876;SDS011;21086;44.780;17.194;2022-11-15T13:31:13;66.97;;;44.28;;
34876;SDS011;21086;44.780;17.194;2022-11-15T13:33:56;29.52;;;21.30;;
34876;SDS011;21086;44.780;17.194;2022-11-15T13:36:30;27.25;;;19.88;;
34876;SDS011;21086;44.780;17.194;2022-11-15T13:39:03;25.27;;;20.02;;
34876;SDS011;21086;44.780;17.194;2022-11-15T13:41:50;31.98;;;23.45;;
34876;SDS011;21086;44.780;17.194;2022-11-15T13:44:25;41.47;;;32.63;;
34876;SDS011;21086;44.780;17.194;2022-11-15T13:47:06;40.03;;;28.30;;
34876;SDS011;21086;44.780;17.194;2022-11-15T13:49:40;36.88;;;27.92;;
34876;SDS011;21086;44.780;17.194;2022-11-15T13:52:09;37.80;;;26.42;;
34876;SDS011;21086;44.780;17.194;2022-11-15T13:54:42;40.75;;;30.98;;
34876;SDS011;21086;44.780;17.194;2022-11-15T14:06:04;38.03;;;27.30;;
34876;SDS011;21086;44.780;17.194;2022-11-15T14:08:41;35.75;;;24.70;;
34876;SDS011;21086;44.780;17.194;2022-11-15T14:11:23;31.42;;;23.60;;
34876;SDS011;21086;44.780;17.194;2022-11-15T14:16:37;52.28;;;37.00;;
34876;SDS011;21086;44.780;17.194;2022-11-15T14:19:05;41.17;;;31.35;;
34876;SDS011;21086;44.780;17.194;2022-11-15T14:21:33;44.38;;;32.20;;
34876;SDS011;21086;44.780;17.194;2022-11-15T14:24:19;49.58;;;34.60;;
34876;SDS011;21086;44.780;17.194;2022-11-15T14:26:47;54.30;;;39.60;;
34876;SDS011;21086;44.780;17.194;2022-11-15T14:29:24;71.18;;;51.17;;
34876;SDS011;21086;44.780;17.194;2022-11-15T14:31:53;68.90;;;49.55;;
34876;SDS011;21086;44.780;17.194;2022-11-15T14:34:31;65.75;;;45.05;;
34876;SDS011;21086;44.780;17.194;2022-11-15T14:36:58;71.40;;;48.28;;
34876;SDS011;21086;44.780;17.194;2022-11-15T14:39:26;58.40;;;42.40;;
34876;SDS011;21086;44.780;17.194;2022-11-15T14:41:53;78.20;;;44.97;;
34876;SDS011;21086;44.780;17.194;2022-11-15T14:44:20;64.82;;;44.63;;
34876;SDS011;21086;44.780;17.194;2022-11-15T14:46:48;76.60;;;47.63;;
34876;SDS011;21086;44.780;17.194;2022-11-15T14:49:15;55.10;;;41.22;;
34876;SDS011;21086;44.780;17.194;2022-11-15T14:51:42;60.72;;;43.20;;
34876;SDS011;21086;44.780;17.194;2022-11-15T14:54:10;57.42;;;40.15;;
34876;SDS011;21086;44.780;17.194;2022-11-15T14:56:37;58.90;;;40.70;;
34876;SDS011;21086;44.780;17.194;2022-11-15T14:59:04;72.30;;;47.10;;
34876;SDS011;21086;44.780;17.194;2022-11-15T15:01:32;65.80;;;45.78;;
34876;SDS011;21086;44.780;17.194;2022-11-15T15:03:59;55.75;;;38.35;;
34876;SDS011;21086;44.780;17.194;2022-11-15T15:06:27;78.85;;;50.22;;
34876;SDS011;21086;44.780;17.194;2022-11-15T15:08:54;54.10;;;39.70;;
34876;SDS011;21086;44.780;17.194;2022-11-15T15:11:22;77.95;;;51.90;;
34876;SDS011;21086;44.780;17.194;2022-11-15T15:16:27;62.67;;;38.00;;
34876;SDS011;21086;44.780;17.194;2022-11-15T15:18:58;57.88;;;40.15;;
34876;SDS011;21086;44.780;17.194;2022-11-15T15:47:47;74.35;;;48.72;;
34876;SDS011;21086;44.780;17.194;2022-11-15T15:50:23;67.75;;;48.10;;
34876;SDS011;21086;44.780;17.194;2022-11-15T15:52:55;94.50;;;63.13;;
34876;SDS011;21086;44.780;17.194;2022-11-15T15:55:24;80.97;;;54.75;;
34876;SDS011;21086;44.780;17.194;2022-11-15T15:57:51;79.10;;;53.47;;
34876;SDS011;21086;44.780;17.194;2022-11-15T16:00:18;85.75;;;53.78;;
34876;SDS011;21086;44.780;17.194;2022-11-15T16:02:46;61.90;;;43.97;;
34876;SDS011;21086;44.780;17.194;2022-11-15T16:05:13;95.15;;;64.05;;
34876;SDS011;21086;44.780;17.194;2022-11-15T16:07:40;58.63;;;41.72;;
34876;SDS011;21086;44.780;17.194;2022-11-15T16:10:54;75.97;;;51.28;;
34876;SDS011;21086;44.780;17.194;2022-11-15T16:13:00;91.95;;;60.88;;
34876;SDS011;21086;44.780;17.194;2022-11-15T16:15:31;96.30;;;66.40;;
34876;SDS011;21086;44.780;17.194;2022-11-15T16:17:59;81.53;;;57.10;;
34876;SDS011;21086;44.780;17.194;2022-11-15T16:23:06;72.85;;;50.30;;
34876;SDS011;21086;44.780;17.194;2022-11-15T16:25:39;54.65;;;37.70;;
34876;SDS011;21086;44.780;17.194;2022-11-15T16:33:32;62.90;;;44.42;;
34876;SDS011;21086;44.780;17.194;2022-11-15T16:35:59;67.55;;;46.60;;
34876;SDS011;21086;44.780;17.194;2022-11-15T16:38:27;73.28;;;48.92;;
34876;SDS011;21086;44.780;17.194;2022-11-15T16:40:54;71.53;;;50.17;;
34876;SDS011;21086;44.780;17.194;2022-11-15T16:43:24;119.28;;;79.65;;
34876;SDS011;21086;44.780;17.194;2022-11-15T16:46:16;86.22;;;56.28;;
34876;SDS011;21086;44.780;17.194;2022-11-15T16:49:02;112.60;;;74.05;;
34876;SDS011;21086;44.780;17.194;2022-11-15T16:51:30;128.10;;;82.65;;
34876;SDS011;21086;44.780;17.194;2022-11-15T16:54:02;165.32;;;104.03;;
34876;SDS011;21086;44.780;17.194;2022-11-15T16:56:34;178.70;;;112.05;;
34876;SDS011;21086;44.780;17.194;2022-11-15T16:59:08;124.00;;;79.65;;
34876;SDS011;21086;44.780;17.194;2022-11-15T17:01:42;274.13;;;175.70;;
34876;SDS011;21086;44.780;17.194;2022-11-15T17:04:19;212.68;;;134.30;;
34876;SDS011;21086;44.780;17.194;2022-11-15T17:06:48;241.73;;;151.45;;
34876;SDS011;21086;44.780;17.194;2022-11-15T17:09:16;160.18;;;100.93;;
34876;SDS011;21086;44.780;17.194;2022-11-15T17:11:45;171.07;;;104.30;;
34876;SDS011;21086;44.780;17.194;2022-11-15T17:21:59;146.20;;;89.57;;
34876;SDS011;21086;44.780;17.194;2022-11-15T17:24:26;238.75;;;141.57;;
34876;SDS011;21086;44.780;17.194;2022-11-15T17:26:54;230.70;;;141.20;;
34876;SDS011;21086;44.780;17.194;2022-11-15T17:29:21;243.43;;;145.93;;
34876;SDS011;21086;44.780;17.194;2022-11-15T17:34:24;169.93;;;105.50;;
34876;SDS011;21086;44.780;17.194;2022-11-15T17:36:51;198.98;;;124.78;;
34876;SDS011;21086;44.780;17.194;2022-11-15T17:39:19;182.00;;;116.95;;
34876;SDS011;21086;44.780;17.194;2022-11-15T17:41:49;129.32;;;83.35;;
34876;SDS011;21086;44.780;17.194;2022-11-15T17:44:16;121.82;;;81.95;;
34876;SDS011;21086;44.780;17.194;2022-11-15T17:46:43;130.45;;;79.53;;
34876;SDS011;21086;44.780;17.194;2022-11-15T17:49:11;90.70;;;59.67;;
34876;SDS011;21086;44.780;17.194;2022-11-15T17:51:38;125.97;;;78.32;;
34876;SDS011;21086;44.780;17.194;2022-11-15T17:54:09;112.32;;;73.25;;
34876;SDS011;21086;44.780;17.194;2022-11-15T17:56:41;132.88;;;88.40;;
34876;SDS011;21086;44.780;17.194;2022-11-15T17:59:08;98.65;;;65.10;;
34876;SDS011;21086;44.780;17.194;2022-11-15T18:01:42;131.70;;;84.97;;
34876;SDS011;21086;44.780;17.194;2022-11-15T18:04:10;105.32;;;68.88;;
34876;SDS011;21086;44.780;17.194;2022-11-15T18:06:40;110.00;;;71.50;;
34876;SDS011;21086;44.780;17.194;2022-11-15T18:09:08;104.18;;;71.72;;
34876;SDS011;21086;44.780;17.194;2022-11-15T18:11:37;117.10;;;77.00;;
34876;SDS011;21086;44.780;17.194;2022-11-15T18:14:07;123.20;;;82.00;;
34876;SDS011;21086;44.780;17.194;2022-11-15T18:16:40;136.98;;;91.22;;
34876;SDS011;21086;44.780;17.194;2022-11-15T18:19:08;149.10;;;98.30;;
34876;SDS011;21086;44.780;17.194;2022-11-15T18:21:39;116.03;;;77.00;;
34876;SDS011;21086;44.780;17.194;2022-11-15T18:24:27;133.50;;;87.32;;
34876;SDS011;21086;44.780;17.194;2022-11-15T18:26:56;112.10;;;73.50;;
34876;SDS011;21086;44.780;17.194;2022-11-15T18:29:26;114.10;;;74.20;;
34876;SDS011;21086;44.780;17.194;2022-11-15T18:31:54;145.25;;;86.13;;
34876;SDS011;21086;44.780;17.194;2022-11-15T18:34:22;117.53;;;74.00;;
34876;SDS011;21086;44.780;17.194;2022-11-15T18:36:51;128.82;;;73.40;;
34876;SDS011;21086;44.780;17.194;2022-11-15T18:39:19;119.32;;;70.75;;
34876;SDS011;21086;44.780;17.194;2022-11-15T18:41:47;134.55;;;75.22;;
34876;SDS011;21086;44.780;17.194;2022-11-15T19:05:07;85.10;;;53.22;;
34876;SDS011;21086;44.780;17.194;2022-11-15T22:03:00;100.28;;;65.70;;
34876;SDS011;21086;44.780;17.194;2022-11-15T22:05:28;104.07;;;64.90;;
34876;SDS011;21086;44.780;17.194;2022-11-15T22:07:55;97.43;;;65.30;;
34876;SDS011;21086;44.780;17.194;2022-11-15T22:10:22;101.68;;;63.85;;
34876;SDS011;21086;44.780;17.194;2022-11-15T22:12:48;95.10;;;61.55;;
34876;SDS011;21086;44.780;17.194;2022-11-15T22:15:16;99.22;;;65.22;;